sensor_id;sensor_type;location;lat;lon;timestamp;P1;durP1;ratioP1;P2;durP2;ratioP2
25615;SDS011;13482;48.234;13.006;2023-07-13T00:00:59;2.17;;;1.30;;
25615;SDS011;13482;48.234;13.006;2023-07-13T00:03:27;1.90;;;1.33;;
25615;SDS011;13482;48.234;13.006;2023-07-13T00:05:59;3.08;;;1.55;;
25615;SDS011;13482;48.234;13.006;2023-07-13T00:08:31;2.47;;;1.20;;
25615;SDS011;13482;48.234;13.006;2023-07-13T00:11:02;2.60;;;1.40;;
25615;SDS011;13482;48.234;13.006;2023-07-13T00:13:30;4.60;;;1.60;;
25615;SDS011;13482;48.234;13.006;2023-07-13T00:15:58;2.10;;;1.50;;
25615;SDS011;13482;48.234;13.006;2023-07-13T00:18:25;2.72;;;1.48;;
25615;SDS011;13482;48.234;13.006;2023-07-13T00:20:56;2.30;;;1.30;;
25615;SDS011;13482;48.234;13.006;2023-07-13T00:23:32;3.22;;;1.48;;
25615;SDS011;13482;48.234;13.006;2023-07-13T00:26:02;1.92;;;1.40;;
25615;SDS011;13482;48.234;13.006;2023-07-13T00:28:33;2.33;;;1.50;;
25615;SDS011;13482;48.234;13.006;2023-07-13T00:31:02;1.90;;;1.40;;
25615;SDS011;13482;48.234;13.006;2023-07-13T00:33:32;2.25;;;1.25;;
25615;SDS011;13482;48.234;13.006;2023-07-13T00:36:00;2.13;;;1.40;;
25615;SDS011;13482;48.234;13.006;2023-07-13T00:38:27;2.47;;;1.33;;
25615;SDS011;13482;48.234;13.006;2023-07-13T00:40:55;2.15;;;1.20;;
25615;SDS011;13482;48.234;13.006;2023-07-13T00:43:23;3.70;;;1.40;;
25615;SDS011;13482;48.234;13.006;2023-07-13T00:48:32;3.25;;;1.52;;
25615;SDS011;13482;48.234;13.006;2023-07-13T00:51:03;2.35;;;1.52;;
25615;SDS011;13482;48.234;13.006;2023-07-13T00:53:31;2.78;;;1.55;;
25615;SDS011;13482;48.234;13.006;2023-07-13T00:55:59;2.05;;;1.40;;
25615;SDS011;13482;48.234;13.006;2023-07-13T00:58:27;2.70;;;1.23;;
25615;SDS011;13482;48.234;13.006;2023-07-13T01:00:55;1.80;;;1.30;;
25615;SDS011;13482;48.234;13.006;2023-07-13T01:03:23;2.35;;;1.40;;
25615;SDS011;13482;48.234;13.006;2023-07-13T01:05:50;2.33;;;1.52;;
25615;SDS011;13482;48.234;13.006;2023-07-13T01:08:21;2.58;;;1.50;;
25615;SDS011;13482;48.234;13.006;2023-07-13T01:10:56;3.22;;;1.38;;
25615;SDS011;13482;48.234;13.006;2023-07-13T01:13:24;2.67;;;1.50;;
25615;SDS011;13482;48.234;13.006;2023-07-13T01:15:53;2.22;;;1.30;;
25615;SDS011;13482;48.234;13.006;2023-07-13T01:18:25;2.60;;;1.20;;
25615;SDS011;13482;48.234;13.006;2023-07-13T01:20:55;2.13;;;1.40;;
25615;SDS011;13482;48.234;13.006;2023-07-13T01:23:26;2.63;;;1.10;;
25615;SDS011;13482;48.234;13.006;2023-07-13T01:25:56;1.88;;;1.33;;
25615;SDS011;13482;48.234;13.006;2023-07-13T01:28:25;2.63;;;1.30;;
25615;SDS011;13482;48.234;13.006;2023-07-13T01:30:55;1.63;;;1.20;;
25615;SDS011;13482;48.234;13.006;2023-07-13T01:33:25;2.90;;;1.45;;
25615;SDS011;13482;48.234;13.006;2023-07-13T01:35:53;2.20;;;1.25;;
25615;SDS011;13482;48.234;13.006;2023-07-13T01:38:24;2.40;;;1.20;;
25615;SDS011;13482;48.234;13.006;2023-07-13T01:40:52;1.42;;;1.10;;
25615;SDS011;13482;48.234;13.006;2023-07-13T01:43:20;2.65;;;1.50;;
25615;SDS011;13482;48.234;13.006;2023-07-13T01:45:48;7.22;;;1.63;;
25615;SDS011;13482;48.234;13.006;2023-07-13T01:48:16;4.72;;;1.30;;
25615;SDS011;13482;48.234;13.006;2023-07-13T01:50:43;3.30;;;1.52;;
25615;SDS011;13482;48.234;13.006;2023-07-13T01:53:11;3.95;;;1.90;;
25615;SDS011;13482;48.234;13.006;2023-07-13T01:55:39;3.10;;;1.35;;
25615;SDS011;13482;48.234;13.006;2023-07-13T01:58:09;3.42;;;1.45;;
25615;SDS011;13482;48.234;13.006;2023-07-13T02:00:36;5.53;;;1.80;;
25615;SDS011;13482;48.234;13.006;2023-07-13T02:03:03;3.30;;;1.23;;
25615;SDS011;13482;48.234;13.006;2023-07-13T02:05:31;2.53;;;1.30;;
25615;SDS011;13482;48.234;13.006;2023-07-13T02:07:59;2.53;;;1.67;;
25615;SDS011;13482;48.234;13.006;2023-07-13T02:10:26;2.78;;;1.20;;
25615;SDS011;13482;48.234;13.006;2023-07-13T02:12:55;2.45;;;1.40;;
25615;SDS011;13482;48.234;13.006;2023-07-13T02:15:22;1.70;;;1.30;;
25615;SDS011;13482;48.234;13.006;2023-07-13T02:17:49;3.33;;;1.48;;
25615;SDS011;13482;48.234;13.006;2023-07-13T02:20:17;2.72;;;1.20;;
25615;SDS011;13482;48.234;13.006;2023-07-13T02:22:45;6.80;;;1.77;;
25615;SDS011;13482;48.234;13.006;2023-07-13T02:25:12;5.93;;;1.60;;
25615;SDS011;13482;48.234;13.006;2023-07-13T02:27:40;4.47;;;1.63;;
25615;SDS011;13482;48.234;13.006;2023-07-13T02:30:08;4.95;;;1.40;;
25615;SDS011;13482;48.234;13.006;2023-07-13T02:32:37;4.10;;;1.23;;
25615;SDS011;13482;48.234;13.006;2023-07-13T02:35:05;5.07;;;1.40;;
25615;SDS011;13482;48.234;13.006;2023-07-13T02:37:33;6.45;;;1.60;;
25615;SDS011;13482;48.234;13.006;2023-07-13T02:40:00;3.75;;;1.73;;
25615;SDS011;13482;48.234;13.006;2023-07-13T02:42:34;3.22;;;1.58;;
25615;SDS011;13482;48.234;13.006;2023-07-13T02:45:05;2.00;;;1.27;;
25615;SDS011;13482;48.234;13.006;2023-07-13T02:47:35;2.08;;;1.50;;
25615;SDS011;13482;48.234;13.006;2023-07-13T02:50:03;3.78;;;1.80;;
25615;SDS011;13482;48.234;13.006;2023-07-13T02:52:32;4.90;;;1.50;;
25615;SDS011;13482;48.234;13.006;2023-07-13T02:54:59;3.00;;;1.50;;
25615;SDS011;13482;48.234;13.006;2023-07-13T02:57:27;3.00;;;1.35;;
25615;SDS011;13482;48.234;13.006;2023-07-13T02:59:54;3.75;;;1.45;;
25615;SDS011;13482;48.234;13.006;2023-07-13T03:02:22;1.60;;;1.10;;
25615;SDS011;13482;48.234;13.006;2023-07-13T03:04:49;1.63;;;1.00;;
25615;SDS011;13482;48.234;13.006;2023-07-13T03:07:17;1.70;;;1.00;;
25615;SDS011;13482;48.234;13.006;2023-07-13T03:09:44;2.60;;;1.23;;
25615;SDS011;13482;48.234;13.006;2023-07-13T03:12:11;4.22;;;1.20;;
25615;SDS011;13482;48.234;13.006;2023-07-13T03:14:39;3.13;;;1.40;;
25615;SDS011;13482;48.234;13.006;2023-07-13T03:17:06;1.80;;;0.98;;
25615;SDS011;13482;48.234;13.006;2023-07-13T03:19:34;3.03;;;1.13;;
25615;SDS011;13482;48.234;13.006;2023-07-13T03:22:01;4.60;;;1.42;;
25615;SDS011;13482;48.234;13.006;2023-07-13T03:24:29;3.17;;;1.10;;
25615;SDS011;13482;48.234;13.006;2023-07-13T03:26:56;1.90;;;1.08;;
25615;SDS011;13482;48.234;13.006;2023-07-13T03:29:24;2.33;;;1.02;;
25615;SDS011;13482;48.234;13.006;2023-07-13T03:31:54;1.50;;;1.10;;
25615;SDS011;13482;48.234;13.006;2023-07-13T03:34:22;1.70;;;1.00;;
25615;SDS011;13482;48.234;13.006;2023-07-13T03:36:49;2.15;;;1.00;;
25615;SDS011;13482;48.234;13.006;2023-07-13T03:39:21;1.48;;;1.05;;
25615;SDS011;13482;48.234;13.006;2023-07-13T03:41:49;1.63;;;1.10;;
25615;SDS011;13482;48.234;13.006;2023-07-13T03:44:17;2.65;;;1.30;;
25615;SDS011;13482;48.234;13.006;2023-07-13T03:46:44;2.20;;;1.10;;
25615;SDS011;13482;48.234;13.006;2023-07-13T03:49:12;2.38;;;1.00;;
25615;SDS011;13482;48.234;13.006;2023-07-13T03:51:40;2.28;;;0.90;;
25615;SDS011;13482;48.234;13.006;2023-07-13T03:54:07;3.70;;;0.93;;
25615;SDS011;13482;48.234;13.006;2023-07-13T03:56:35;1.75;;;1.02;;
25615;SDS011;13482;48.234;13.006;2023-07-13T03:59:02;1.80;;;0.85;;
25615;SDS011;13482;48.234;13.006;2023-07-13T04:01:30;1.95;;;1.13;;
25615;SDS011;13482;48.234;13.006;2023-07-13T04:03:58;1.40;;;0.82;;
25615;SDS011;13482;48.234;13.006;2023-07-13T04:06:29;2.08;;;0.90;;
25615;SDS011;13482;48.234;13.006;2023-07-13T04:08:59;1.50;;;0.77;;
25615;SDS011;13482;48.234;13.006;2023-07-13T04:11:29;1.50;;;0.70;;
25615;SDS011;13482;48.234;13.006;2023-07-13T04:13:58;1.30;;;0.82;;
25615;SDS011;13482;48.234;13.006;2023-07-13T04:16:26;1.80;;;1.00;;
25615;SDS011;13482;48.234;13.006;2023-07-13T04:18:54;3.33;;;0.90;;
25615;SDS011;13482;48.234;13.006;2023-07-13T04:21:28;2.20;;;0.93;;
25615;SDS011;13482;48.234;13.006;2023-07-13T04:23:57;2.08;;;0.93;;
25615;SDS011;13482;48.234;13.006;2023-07-13T04:26:25;2.33;;;1.05;;
25615;SDS011;13482;48.234;13.006;2023-07-13T04:28:53;2.08;;;1.05;;
25615;SDS011;13482;48.234;13.006;2023-07-13T04:31:21;2.15;;;1.40;;
25615;SDS011;13482;48.234;13.006;2023-07-13T04:33:49;2.03;;;1.23;;
25615;SDS011;13482;48.234;13.006;2023-07-13T04:36:22;2.03;;;1.20;;
25615;SDS011;13482;48.234;13.006;2023-07-13T04:39:11;1.98;;;1.33;;
25615;SDS011;13482;48.234;13.006;2023-07-13T04:41:38;1.77;;;1.25;;
25615;SDS011;13482;48.234;13.006;2023-07-13T04:44:06;2.72;;;1.10;;
25615;SDS011;13482;48.234;13.006;2023-07-13T04:46:43;1.67;;;1.15;;
25615;SDS011;13482;48.234;13.006;2023-07-13T04:49:11;3.90;;;1.20;;
25615;SDS011;13482;48.234;13.006;2023-07-13T04:51:38;2.35;;;1.00;;
25615;SDS011;13482;48.234;13.006;2023-07-13T04:54:06;1.70;;;1.27;;
25615;SDS011;13482;48.234;13.006;2023-07-13T04:56:34;1.80;;;1.10;;
25615;SDS011;13482;48.234;13.006;2023-07-13T04:59:01;2.25;;;1.13;;
25615;SDS011;13482;48.234;13.006;2023-07-13T05:01:29;2.75;;;1.10;;
25615;SDS011;13482;48.234;13.006;2023-07-13T05:03:57;1.92;;;1.23;;
25615;SDS011;13482;48.234;13.006;2023-07-13T05:06:26;1.65;;;1.23;;
25615;SDS011;13482;48.234;13.006;2023-07-13T05:08:55;2.03;;;1.20;;
25615;SDS011;13482;48.234;13.006;2023-07-13T05:11:22;2.33;;;1.40;;
25615;SDS011;13482;48.234;13.006;2023-07-13T05:13:51;3.17;;;1.40;;
25615;SDS011;13482;48.234;13.006;2023-07-13T05:16:18;1.77;;;1.27;;
25615;SDS011;13482;48.234;13.006;2023-07-13T05:18:46;3.08;;;1.17;;
25615;SDS011;13482;48.234;13.006;2023-07-13T05:21:14;1.95;;;1.30;;
25615;SDS011;13482;48.234;13.006;2023-07-13T05:23:41;1.48;;;1.15;;
25615;SDS011;13482;48.234;13.006;2023-07-13T05:26:09;2.47;;;1.13;;
25615;SDS011;13482;48.234;13.006;2023-07-13T05:28:38;1.83;;;1.00;;
25615;SDS011;13482;48.234;13.006;2023-07-13T05:31:09;1.85;;;1.10;;
25615;SDS011;13482;48.234;13.006;2023-07-13T05:33:38;1.85;;;1.10;;
25615;SDS011;13482;48.234;13.006;2023-07-13T05:36:06;1.60;;;1.10;;
25615;SDS011;13482;48.234;13.006;2023-07-13T05:38:34;2.17;;;1.15;;
25615;SDS011;13482;48.234;13.006;2023-07-13T05:41:02;2.53;;;0.98;;
25615;SDS011;13482;48.234;13.006;2023-07-13T05:43:33;2.17;;;1.13;;
25615;SDS011;13482;48.234;13.006;2023-07-13T05:46:01;1.73;;;1.20;;
25615;SDS011;13482;48.234;13.006;2023-07-13T05:48:29;3.03;;;1.30;;
25615;SDS011;13482;48.234;13.006;2023-07-13T05:50:57;1.85;;;1.10;;
25615;SDS011;13482;48.234;13.006;2023-07-13T05:53:24;2.47;;;1.30;;
25615;SDS011;13482;48.234;13.006;2023-07-13T05:55:53;1.70;;;1.30;;
25615;SDS011;13482;48.234;13.006;2023-07-13T05:58:22;2.25;;;1.30;;
25615;SDS011;13482;48.234;13.006;2023-07-13T06:00:57;4.38;;;1.42;;
25615;SDS011;13482;48.234;13.006;2023-07-13T06:03:28;2.92;;;1.40;;
25615;SDS011;13482;48.234;13.006;2023-07-13T06:05:56;2.90;;;1.50;;
25615;SDS011;13482;48.234;13.006;2023-07-13T06:08:27;1.92;;;1.55;;
25615;SDS011;13482;48.234;13.006;2023-07-13T06:11:01;3.50;;;1.63;;
25615;SDS011;13482;48.234;13.006;2023-07-13T06:13:42;3.70;;;1.30;;
25615;SDS011;13482;48.234;13.006;2023-07-13T06:16:11;4.25;;;1.65;;
25615;SDS011;13482;48.234;13.006;2023-07-13T06:18:39;1.70;;;1.27;;
25615;SDS011;13482;48.234;13.006;2023-07-13T06:21:08;3.65;;;1.60;;
25615;SDS011;13482;48.234;13.006;2023-07-13T06:23:46;1.67;;;1.30;;
25615;SDS011;13482;48.234;13.006;2023-07-13T06:26:16;2.22;;;1.30;;
25615;SDS011;13482;48.234;13.006;2023-07-13T06:28:45;2.63;;;1.30;;
25615;SDS011;13482;48.234;13.006;2023-07-13T06:31:14;2.63;;;1.40;;
25615;SDS011;13482;48.234;13.006;2023-07-13T06:33:43;3.05;;;1.58;;
25615;SDS011;13482;48.234;13.006;2023-07-13T06:36:11;2.88;;;1.50;;
25615;SDS011;13482;48.234;13.006;2023-07-13T06:38:39;2.25;;;1.27;;
25615;SDS011;13482;48.234;13.006;2023-07-13T06:41:07;1.98;;;1.35;;
25615;SDS011;13482;48.234;13.006;2023-07-13T06:43:35;1.80;;;1.20;;
25615;SDS011;13482;48.234;13.006;2023-07-13T06:46:03;2.47;;;1.45;;
25615;SDS011;13482;48.234;13.006;2023-07-13T06:48:31;1.40;;;1.10;;
25615;SDS011;13482;48.234;13.006;2023-07-13T06:50:58;3.30;;;1.55;;
25615;SDS011;13482;48.234;13.006;2023-07-13T06:53:26;2.47;;;1.50;;
25615;SDS011;13482;48.234;13.006;2023-07-13T06:55:53;2.33;;;1.40;;
25615;SDS011;13482;48.234;13.006;2023-07-13T06:58:21;2.97;;;1.60;;
25615;SDS011;13482;48.234;13.006;2023-07-13T07:00:52;2.63;;;1.30;;
25615;SDS011;13482;48.234;13.006;2023-07-13T07:03:20;2.63;;;1.60;;
25615;SDS011;13482;48.234;13.006;2023-07-13T07:05:47;1.80;;;1.27;;
25615;SDS011;13482;48.234;13.006;2023-07-13T07:08:15;1.70;;;1.27;;
25615;SDS011;13482;48.234;13.006;2023-07-13T07:10:42;3.70;;;1.40;;
25615;SDS011;13482;48.234;13.006;2023-07-13T07:13:10;2.30;;;1.45;;
25615;SDS011;13482;48.234;13.006;2023-07-13T07:15:37;2.80;;;1.50;;
25615;SDS011;13482;48.234;13.006;2023-07-13T07:18:05;2.58;;;1.48;;
25615;SDS011;13482;48.234;13.006;2023-07-13T07:20:32;2.35;;;1.45;;
25615;SDS011;13482;48.234;13.006;2023-07-13T07:22:59;2.60;;;1.42;;
25615;SDS011;13482;48.234;13.006;2023-07-13T07:25:27;1.63;;;1.25;;
25615;SDS011;13482;48.234;13.006;2023-07-13T07:27:58;2.55;;;1.48;;
25615;SDS011;13482;48.234;13.006;2023-07-13T07:30:28;2.13;;;1.35;;
25615;SDS011;13482;48.234;13.006;2023-07-13T07:32:58;1.77;;;1.23;;
25615;SDS011;13482;48.234;13.006;2023-07-13T07:35:31;2.28;;;1.60;;
25615;SDS011;13482;48.234;13.006;2023-07-13T07:38:03;3.25;;;1.50;;
25615;SDS011;13482;48.234;13.006;2023-07-13T07:40:31;2.60;;;1.33;;
25615;SDS011;13482;48.234;13.006;2023-07-13T07:43:01;2.10;;;1.40;;
25615;SDS011;13482;48.234;13.006;2023-07-13T07:45:28;3.28;;;1.63;;
25615;SDS011;13482;48.234;13.006;2023-07-13T07:47:56;2.58;;;1.70;;
25615;SDS011;13482;48.234;13.006;2023-07-13T07:50:26;2.63;;;1.60;;
25615;SDS011;13482;48.234;13.006;2023-07-13T07:52:54;2.70;;;1.92;;
25615;SDS011;13482;48.234;13.006;2023-07-13T07:55:25;4.45;;;2.00;;
25615;SDS011;13482;48.234;13.006;2023-07-13T07:57:56;3.65;;;1.73;;
25615;SDS011;13482;48.234;13.006;2023-07-13T08:00:26;3.78;;;1.80;;
25615;SDS011;13482;48.234;13.006;2023-07-13T08:03:17;1.95;;;1.45;;
25615;SDS011;13482;48.234;13.006;2023-07-13T08:05:47;3.17;;;1.98;;
25615;SDS011;13482;48.234;13.006;2023-07-13T08:08:35;2.95;;;1.60;;
25615;SDS011;13482;48.234;13.006;2023-07-13T08:11:04;1.95;;;1.30;;
25615;SDS011;13482;48.234;13.006;2023-07-13T08:13:36;4.47;;;1.67;;
25615;SDS011;13482;48.234;13.006;2023-07-13T08:16:04;3.20;;;1.90;;
25615;SDS011;13482;48.234;13.006;2023-07-13T08:18:32;3.60;;;1.40;;
25615;SDS011;13482;48.234;13.006;2023-07-13T08:21:06;2.30;;;1.42;;
25615;SDS011;13482;48.234;13.006;2023-07-13T08:23:35;2.47;;;1.63;;
25615;SDS011;13482;48.234;13.006;2023-07-13T08:26:03;1.75;;;1.35;;
25615;SDS011;13482;48.234;13.006;2023-07-13T08:28:31;2.85;;;1.40;;
25615;SDS011;13482;48.234;13.006;2023-07-13T08:31:00;3.30;;;1.70;;
25615;SDS011;13482;48.234;13.006;2023-07-13T08:33:32;2.15;;;1.35;;
25615;SDS011;13482;48.234;13.006;2023-07-13T08:36:02;2.53;;;1.40;;
25615;SDS011;13482;48.234;13.006;2023-07-13T08:38:29;1.70;;;1.13;;
25615;SDS011;13482;48.234;13.006;2023-07-13T08:40:57;2.45;;;1.50;;
25615;SDS011;13482;48.234;13.006;2023-07-13T08:43:28;2.60;;;1.30;;
25615;SDS011;13482;48.234;13.006;2023-07-13T08:49:11;1.90;;;1.13;;
25615;SDS011;13482;48.234;13.006;2023-07-13T08:51:43;2.10;;;1.35;;
25615;SDS011;13482;48.234;13.006;2023-07-13T08:54:22;1.98;;;1.13;;
25615;SDS011;13482;48.234;13.006;2023-07-13T08:57:16;4.72;;;1.40;;
25615;SDS011;13482;48.234;13.006;2023-07-13T08:59:46;1.60;;;1.20;;
25615;SDS011;13482;48.234;13.006;2023-07-13T09:17:45;2.85;;;1.30;;
25615;SDS011;13482;48.234;13.006;2023-07-13T09:20:17;1.23;;;0.93;;
25615;SDS011;13482;48.234;13.006;2023-07-13T09:23:03;2.38;;;1.30;;
25615;SDS011;13482;48.234;13.006;2023-07-13T09:25:36;1.95;;;1.40;;
25615;SDS011;13482;48.234;13.006;2023-07-13T09:33:37;2.65;;;1.50;;
25615;SDS011;13482;48.234;13.006;2023-07-13T09:36:15;2.40;;;1.60;;
25615;SDS011;13482;48.234;13.006;2023-07-13T09:39:02;2.55;;;1.30;;
25615;SDS011;13482;48.234;13.006;2023-07-13T09:42:00;3.08;;;1.38;;
25615;SDS011;13482;48.234;13.006;2023-07-13T09:44:31;2.03;;;1.10;;
25615;SDS011;13482;48.234;13.006;2023-07-13T09:47:12;3.00;;;1.40;;
25615;SDS011;13482;48.234;13.006;2023-07-13T09:49:54;2.10;;;1.40;;
25615;SDS011;13482;48.234;13.006;2023-07-13T09:55:26;3.28;;;1.30;;
25615;SDS011;13482;48.234;13.006;2023-07-13T09:58:09;3.65;;;1.23;;
25615;SDS011;13482;48.234;13.006;2023-07-13T10:00:44;3.03;;;1.40;;
25615;SDS011;13482;48.234;13.006;2023-07-13T10:03:27;2.20;;;1.35;;
25615;SDS011;13482;48.234;13.006;2023-07-13T10:08:47;2.33;;;1.40;;
25615;SDS011;13482;48.234;13.006;2023-07-13T10:14:00;2.28;;;1.30;;
25615;SDS011;13482;48.234;13.006;2023-07-13T10:16:30;2.58;;;1.38;;
25615;SDS011;13482;48.234;13.006;2023-07-13T10:19:05;2.53;;;1.50;;
25615;SDS011;13482;48.234;13.006;2023-07-13T10:24:23;2.30;;;1.30;;
25615;SDS011;13482;48.234;13.006;2023-07-13T10:29:48;2.50;;;1.25;;
25615;SDS011;13482;48.234;13.006;2023-07-13T10:32:23;3.45;;;1.40;;
25615;SDS011;13482;48.234;13.006;2023-07-13T10:34:51;1.83;;;1.17;;
25615;SDS011;13482;48.234;13.006;2023-07-13T10:37:22;2.00;;;1.60;;
25615;SDS011;13482;48.234;13.006;2023-07-13T10:39:55;2.30;;;1.40;;
25615;SDS011;13482;48.234;13.006;2023-07-13T10:42:28;2.35;;;1.48;;
25615;SDS011;13482;48.234;13.006;2023-07-13T10:45:00;4.78;;;1.58;;
25615;SDS011;13482;48.234;13.006;2023-07-13T10:47:27;2.30;;;1.30;;
25615;SDS011;13482;48.234;13.006;2023-07-13T10:49:56;2.65;;;1.63;;
25615;SDS011;13482;48.234;13.006;2023-07-13T10:52:41;1.88;;;1.30;;
25615;SDS011;13482;48.234;13.006;2023-07-13T10:55:36;2.75;;;1.20;;
25615;SDS011;13482;48.234;13.006;2023-07-13T10:58:20;3.10;;;1.60;;
25615;SDS011;13482;48.234;13.006;2023-07-13T11:03:30;2.90;;;1.42;;
25615;SDS011;13482;48.234;13.006;2023-07-13T11:18:51;1.88;;;1.20;;
25615;SDS011;13482;48.234;13.006;2023-07-13T11:30:24;4.10;;;1.30;;
25615;SDS011;13482;48.234;13.006;2023-07-13T11:35:35;2.50;;;1.27;;
25615;SDS011;13482;48.234;13.006;2023-07-13T11:38:12;2.50;;;1.10;;
25615;SDS011;13482;48.234;13.006;2023-07-13T11:40:58;2.60;;;1.00;;
25615;SDS011;13482;48.234;13.006;2023-07-13T11:43:30;2.35;;;1.00;;
25615;SDS011;13482;48.234;13.006;2023-07-13T11:46:16;1.73;;;1.10;;
25615;SDS011;13482;48.234;13.006;2023-07-13T11:48:53;2.10;;;1.00;;
25615;SDS011;13482;48.234;13.006;2023-07-13T11:51:31;2.40;;;1.02;;
25615;SDS011;13482;48.234;13.006;2023-07-13T11:54:05;1.38;;;0.82;;
25615;SDS011;13482;48.234;13.006;2023-07-13T11:56:47;3.47;;;1.10;;
25615;SDS011;13482;48.234;13.006;2023-07-13T11:59:16;2.38;;;1.05;;
25615;SDS011;13482;48.234;13.006;2023-07-13T12:01:46;1.95;;;0.80;;
25615;SDS011;13482;48.234;13.006;2023-07-13T12:04:23;1.70;;;0.98;;
25615;SDS011;13482;48.234;13.006;2023-07-13T12:07:03;1.27;;;0.85;;
25615;SDS011;13482;48.234;13.006;2023-07-13T12:09:40;1.52;;;0.90;;
25615;SDS011;13482;48.234;13.006;2023-07-13T12:12:12;1.63;;;0.80;;
25615;SDS011;13482;48.234;13.006;2023-07-13T12:14:41;2.05;;;0.80;;
25615;SDS011;13482;48.234;13.006;2023-07-13T12:17:11;1.98;;;1.17;;
25615;SDS011;13482;48.234;13.006;2023-07-13T12:19:50;2.17;;;1.10;;
25615;SDS011;13482;48.234;13.006;2023-07-13T12:22:19;2.25;;;0.90;;
25615;SDS011;13482;48.234;13.006;2023-07-13T12:24:49;1.63;;;1.00;;
25615;SDS011;13482;48.234;13.006;2023-07-13T12:27:20;2.05;;;1.02;;
25615;SDS011;13482;48.234;13.006;2023-07-13T12:29:59;1.90;;;0.95;;
25615;SDS011;13482;48.234;13.006;2023-07-13T12:32:31;2.10;;;0.80;;
25615;SDS011;13482;48.234;13.006;2023-07-13T12:35:16;2.88;;;0.80;;
25615;SDS011;13482;48.234;13.006;2023-07-13T12:37:48;2.40;;;0.90;;
25615;SDS011;13482;48.234;13.006;2023-07-13T12:40:18;1.42;;;0.70;;
25615;SDS011;13482;48.234;13.006;2023-07-13T12:42:49;2.00;;;0.80;;
25615;SDS011;13482;48.234;13.006;2023-07-13T12:45:20;0.82;;;0.60;;
25615;SDS011;13482;48.234;13.006;2023-07-13T12:50:22;1.60;;;0.80;;
25615;SDS011;13482;48.234;13.006;2023-07-13T12:52:59;1.02;;;0.60;;
25615;SDS011;13482;48.234;13.006;2023-07-13T12:55:30;1.63;;;0.77;;
25615;SDS011;13482;48.234;13.006;2023-07-13T12:58:02;1.73;;;0.75;;
25615;SDS011;13482;48.234;13.006;2023-07-13T13:00:37;2.17;;;0.65;;
25615;SDS011;13482;48.234;13.006;2023-07-13T13:03:28;2.25;;;0.75;;
25615;SDS011;13482;48.234;13.006;2023-07-13T13:06:06;1.40;;;0.60;;
25615;SDS011;13482;48.234;13.006;2023-07-13T13:08:45;1.10;;;0.60;;
25615;SDS011;13482;48.234;13.006;2023-07-13T13:11:18;0.90;;;0.70;;
25615;SDS011;13482;48.234;13.006;2023-07-13T13:13:48;1.05;;;0.60;;
25615;SDS011;13482;48.234;13.006;2023-07-13T13:16:22;2.28;;;0.70;;
25615;SDS011;13482;48.234;13.006;2023-07-13T13:19:12;1.58;;;0.63;;
25615;SDS011;13482;48.234;13.006;2023-07-13T13:21:44;1.80;;;0.70;;
25615;SDS011;13482;48.234;13.006;2023-07-13T13:24:16;2.17;;;0.63;;
25615;SDS011;13482;48.234;13.006;2023-07-13T13:26:47;1.63;;;0.60;;
25615;SDS011;13482;48.234;13.006;2023-07-13T13:29:21;2.42;;;0.50;;
25615;SDS011;13482;48.234;13.006;2023-07-13T13:31:53;1.90;;;0.50;;
25615;SDS011;13482;48.234;13.006;2023-07-13T13:34:22;1.45;;;0.55;;
25615;SDS011;13482;48.234;13.006;2023-07-13T13:36:51;1.27;;;0.52;;
25615;SDS011;13482;48.234;13.006;2023-07-13T13:39:28;2.55;;;0.95;;
25615;SDS011;13482;48.234;13.006;2023-07-13T13:42:03;0.95;;;0.50;;
25615;SDS011;13482;48.234;13.006;2023-07-13T13:44:31;1.52;;;0.70;;
25615;SDS011;13482;48.234;13.006;2023-07-13T13:46:59;1.30;;;0.60;;
25615;SDS011;13482;48.234;13.006;2023-07-13T13:49:26;2.60;;;0.70;;
25615;SDS011;13482;48.234;13.006;2023-07-13T13:51:56;0.88;;;0.52;;
25615;SDS011;13482;48.234;13.006;2023-07-13T13:54:24;2.28;;;0.73;;
25615;SDS011;13482;48.234;13.006;2023-07-13T13:56:52;1.48;;;0.70;;
25615;SDS011;13482;48.234;13.006;2023-07-13T13:59:22;5.25;;;1.00;;
25615;SDS011;13482;48.234;13.006;2023-07-13T14:01:49;2.40;;;0.65;;
25615;SDS011;13482;48.234;13.006;2023-07-13T14:04:18;1.75;;;0.80;;
25615;SDS011;13482;48.234;13.006;2023-07-13T14:06:48;1.23;;;0.55;;
25615;SDS011;13482;48.234;13.006;2023-07-13T14:09:17;2.00;;;0.80;;
25615;SDS011;13482;48.234;13.006;2023-07-13T14:11:46;2.22;;;0.90;;
25615;SDS011;13482;48.234;13.006;2023-07-13T14:14:18;1.00;;;0.60;;
25615;SDS011;13482;48.234;13.006;2023-07-13T14:16:55;1.25;;;0.60;;
25615;SDS011;13482;48.234;13.006;2023-07-13T14:19:24;1.58;;;0.90;;
25615;SDS011;13482;48.234;13.006;2023-07-13T14:21:51;1.60;;;0.82;;
25615;SDS011;13482;48.234;13.006;2023-07-13T14:24:20;1.77;;;0.80;;
25615;SDS011;13482;48.234;13.006;2023-07-13T14:26:48;1.80;;;0.80;;
25615;SDS011;13482;48.234;13.006;2023-07-13T14:29:16;1.35;;;0.65;;
25615;SDS011;13482;48.234;13.006;2023-07-13T14:31:50;1.90;;;0.77;;
25615;SDS011;13482;48.234;13.006;2023-07-13T14:34:17;1.95;;;0.80;;
25615;SDS011;13482;48.234;13.006;2023-07-13T14:36:47;2.65;;;0.70;;
25615;SDS011;13482;48.234;13.006;2023-07-13T14:39:18;2.17;;;0.80;;
25615;SDS011;13482;48.234;13.006;2023-07-13T14:41:52;1.27;;;0.73;;
25615;SDS011;13482;48.234;13.006;2023-07-13T14:44:24;1.27;;;0.73;;
25615;SDS011;13482;48.234;13.006;2023-07-13T14:46:58;2.78;;;0.80;;
25615;SDS011;13482;48.234;13.006;2023-07-13T14:49:38;1.98;;;0.80;;
25615;SDS011;13482;48.234;13.006;2023-07-13T14:52:14;2.03;;;1.00;;
25615;SDS011;13482;48.234;13.006;2023-07-13T14:54:45;1.27;;;0.60;;
25615;SDS011;13482;48.234;13.006;2023-07-13T14:57:15;1.42;;;0.80;;
25615;SDS011;13482;48.234;13.006;2023-07-13T14:59:48;1.50;;;0.70;;
25615;SDS011;13482;48.234;13.006;2023-07-13T15:02:21;1.90;;;0.80;;
25615;SDS011;13482;48.234;13.006;2023-07-13T15:04:57;1.40;;;0.70;;
25615;SDS011;13482;48.234;13.006;2023-07-13T15:07:25;3.35;;;0.80;;
25615;SDS011;13482;48.234;13.006;2023-07-13T15:09:53;1.48;;;0.73;;
25615;SDS011;13482;48.234;13.006;2023-07-13T15:12:21;2.35;;;0.90;;
25615;SDS011;13482;48.234;13.006;2023-07-13T15:14:48;1.45;;;0.70;;
25615;SDS011;13482;48.234;13.006;2023-07-13T15:19:54;1.80;;;0.80;;
25615;SDS011;13482;48.234;13.006;2023-07-13T15:22:22;1.38;;;0.82;;
25615;SDS011;13482;48.234;13.006;2023-07-13T15:24:50;3.17;;;0.85;;
25615;SDS011;13482;48.234;13.006;2023-07-13T15:27:18;1.60;;;0.60;;
25615;SDS011;13482;48.234;13.006;2023-07-13T15:29:45;1.92;;;0.80;;
25615;SDS011;13482;48.234;13.006;2023-07-13T15:32:13;1.75;;;0.80;;
25615;SDS011;13482;48.234;13.006;2023-07-13T15:34:41;3.45;;;1.00;;
25615;SDS011;13482;48.234;13.006;2023-07-13T15:37:13;1.85;;;0.75;;
25615;SDS011;13482;48.234;13.006;2023-07-13T15:39:42;1.15;;;0.65;;
25615;SDS011;13482;48.234;13.006;2023-07-13T15:42:16;1.52;;;0.63;;
25615;SDS011;13482;48.234;13.006;2023-07-13T15:44:46;3.00;;;0.80;;
25615;SDS011;13482;48.234;13.006;2023-07-13T15:47:15;2.53;;;0.88;;
25615;SDS011;13482;48.234;13.006;2023-07-13T15:49:42;1.25;;;0.60;;
25615;SDS011;13482;48.234;13.006;2023-07-13T15:52:14;2.03;;;0.65;;
25615;SDS011;13482;48.234;13.006;2023-07-13T15:54:46;1.35;;;0.70;;
25615;SDS011;13482;48.234;13.006;2023-07-13T15:57:14;2.95;;;0.80;;
25615;SDS011;13482;48.234;13.006;2023-07-13T15:59:42;1.83;;;0.80;;
25615;SDS011;13482;48.234;13.006;2023-07-13T16:02:17;1.85;;;0.70;;
25615;SDS011;13482;48.234;13.006;2023-07-13T16:04:47;2.40;;;0.80;;
25615;SDS011;13482;48.234;13.006;2023-07-13T16:07:15;1.67;;;0.70;;